sensor_id;sensor_type;location;lat;lon;timestamp;temperature;humidity
11762;DHT22;5938;47.098;15.474;2022-07-25T00:01:59;19.20;99.90
11762;DHT22;5938;47.098;15.474;2022-07-25T00:06:05;19.20;99.90
11762;DHT22;5938;47.098;15.474;2022-07-25T00:10:15;19.20;99.90
11762;DHT22;5938;47.098;15.474;2022-07-25T00:14:18;19.10;99.90
11762;DHT22;5938;47.098;15.474;2022-07-25T00:18:22;19.00;99.90
11762;DHT22;5938;47.098;15.474;2022-07-25T00:22:27;18.90;99.90
11762;DHT22;5938;47.098;15.474;2022-07-25T00:26:30;18.90;99.90
11762;DHT22;5938;47.098;15.474;2022-07-25T00:30:40;18.70;99.90
11762;DHT22;5938;47.098;15.474;2022-07-25T00:34:44;18.70;99.90
11762;DHT22;5938;47.098;15.474;2022-07-25T00:38:49;18.70;99.90
11762;DHT22;5938;47.098;15.474;2022-07-25T00:42:53;18.60;99.90
11762;DHT22;5938;47.098;15.474;2022-07-25T00:46:57;18.60;99.90
11762;DHT22;5938;47.098;15.474;2022-07-25T00:51:00;18.50;99.90
11762;DHT22;5938;47.098;15.474;2022-07-25T00:55:06;18.50;99.90
11762;DHT22;5938;47.098;15.474;2022-07-25T00:59:10;18.40;99.90
11762;DHT22;5938;47.098;15.474;2022-07-25T01:03:14;18.40;99.90
11762;DHT22;5938;47.098;15.474;2022-07-25T01:07:18;18.40;99.90
11762;DHT22;5938;47.098;15.474;2022-07-25T01:11:24;18.30;99.90
11762;DHT22;5938;47.098;15.474;2022-07-25T01:15:27;18.30;99.90
11762;DHT22;5938;47.098;15.474;2022-07-25T01:19:31;18.30;99.90
11762;DHT22;5938;47.098;15.474;2022-07-25T01:23:36;18.20;99.90
11762;DHT22;5938;47.098;15.474;2022-07-25T01:27:39;18.10;99.90
11762;DHT22;5938;47.098;15.474;2022-07-25T01:31:43;18.10;99.90
11762;DHT22;5938;47.098;15.474;2022-07-25T01:35:48;18.00;99.90
11762;DHT22;5938;47.098;15.474;2022-07-25T01:39:53;18.00;99.90
11762;DHT22;5938;47.098;15.474;2022-07-25T01:43:56;17.90;99.90
11762;DHT22;5938;47.098;15.474;2022-07-25T01:47:59;17.90;99.90
11762;DHT22;5938;47.098;15.474;2022-07-25T01:52:03;17.90;99.90
11762;DHT22;5938;47.098;15.474;2022-07-25T01:56:08;17.90;99.90
11762;DHT22;5938;47.098;15.474;2022-07-25T02:00:14;17.80;99.90
11762;DHT22;5938;47.098;15.474;2022-07-25T02:04:18;17.80;99.90
11762;DHT22;5938;47.098;15.474;2022-07-25T02:08:21;17.80;99.90
11762;DHT22;5938;47.098;15.474;2022-07-25T02:12:26;17.80;99.90
11762;DHT22;5938;47.098;15.474;2022-07-25T02:16:30;17.80;99.90
11762;DHT22;5938;47.098;15.474;2022-07-25T02:20:33;17.70;99.90
11762;DHT22;5938;47.098;15.474;2022-07-25T02:24:36;17.60;99.90
11762;DHT22;5938;47.098;15.474;2022-07-25T02:28:41;17.60;99.90
11762;DHT22;5938;47.098;15.474;2022-07-25T02:32:45;17.60;99.90
11762;DHT22;5938;47.098;15.474;2022-07-25T02:36:48;17.50;99.90
11762;DHT22;5938;47.098;15.474;2022-07-25T02:40:52;17.50;99.90
11762;DHT22;5938;47.098;15.474;2022-07-25T02:44:58;17.50;99.90
11762;DHT22;5938;47.098;15.474;2022-07-25T02:49:01;17.50;99.90
11762;DHT22;5938;47.098;15.474;2022-07-25T02:53:06;17.40;99.90
11762;DHT22;5938;47.098;15.474;2022-07-25T02:57:09;17.50;99.90
11762;DHT22;5938;47.098;15.474;2022-07-25T03:01:14;17.40;99.90
11762;DHT22;5938;47.098;15.474;2022-07-25T03:05:18;17.30;99.90
11762;DHT22;5938;47.098;15.474;2022-07-25T03:09:21;17.30;99.90
11762;DHT22;5938;47.098;15.474;2022-07-25T03:13:25;17.20;99.90
11762;DHT22;5938;47.098;15.474;2022-07-25T03:17:30;17.20;99.90
11762;DHT22;5938;47.098;15.474;2022-07-25T03:21:33;17.20;99.90
11762;DHT22;5938;47.098;15.474;2022-07-25T03:25:36;17.20;99.90
11762;DHT22;5938;47.098;15.474;2022-07-25T03:29:41;17.20;99.90
11762;DHT22;5938;47.098;15.474;2022-07-25T03:33:46;17.10;99.90
11762;DHT22;5938;47.098;15.474;2022-07-25T03:37:49;17.20;99.90
11762;DHT22;5938;47.098;15.474;2022-07-25T03:41:53;17.10;99.90
11762;DHT22;5938;47.098;15.474;2022-07-25T03:45:56;17.20;99.90
11762;DHT22;5938;47.098;15.474;2022-07-25T03:50:01;17.10;99.90
11762;DHT22;5938;47.098;15.474;2022-07-25T03:54:05;17.10;99.90
11762;DHT22;5938;47.098;15.474;2022-07-25T03:58:10;17.10;99.90
11762;DHT22;5938;47.098;15.474;2022-07-25T04:02:15;17.10;99.90
11762;DHT22;5938;47.098;15.474;2022-07-25T04:06:20;17.20;99.90
11762;DHT22;5938;47.098;15.474;2022-07-25T04:10:24;17.20;99.90
11762;DHT22;5938;47.098;15.474;2022-07-25T04:14:27;17.20;99.90
11762;DHT22;5938;47.098;15.474;2022-07-25T04:18:31;17.30;99.90
11762;DHT22;5938;47.098;15.474;2022-07-25T04:22:37;17.30;99.90
11762;DHT22;5938;47.098;15.474;2022-07-25T04:26:47;17.40;99.90
11762;DHT22;5938;47.098;15.474;2022-07-25T04:30:50;17.40;99.90
11762;DHT22;5938;47.098;15.474;2022-07-25T04:34:54;17.50;99.90
11762;DHT22;5938;47.098;15.474;2022-07-25T04:38:59;17.50;99.90
11762;DHT22;5938;47.098;15.474;2022-07-25T04:43:03;17.60;99.90
11762;DHT22;5938;47.098;15.474;2022-07-25T04:47:07;17.70;99.90
11762;DHT22;5938;47.098;15.474;2022-07-25T04:51:10;17.70;99.90
11762;DHT22;5938;47.098;15.474;2022-07-25T04:55:15;17.90;99.90
11762;DHT22;5938;47.098;15.474;2022-07-25T04:59:19;18.00;99.90
11762;DHT22;5938;47.098;15.474;2022-07-25T05:03:22;18.10;99.90
11762;DHT22;5938;47.098;15.474;2022-07-25T05:07:26;18.20;99.90
11762;DHT22;5938;47.098;15.474;2022-07-25T05:11:31;18.30;99.90
11762;DHT22;5938;47.098;15.474;2022-07-25T05:15:35;18.50;99.90
11762;DHT22;5938;47.098;15.474;2022-07-25T05:19:39;18.60;99.90
11762;DHT22;5938;47.098;15.474;2022-07-25T05:23:42;18.80;99.90
11762;DHT22;5938;47.098;15.474;2022-07-25T05:27:47;19.10;99.90
11762;DHT22;5938;47.098;15.474;2022-07-25T05:31:50;19.50;99.90
11762;DHT22;5938;47.098;15.474;2022-07-25T05:35:54;19.80;99.90
11762;DHT22;5938;47.098;15.474;2022-07-25T05:39:57;20.00;99.90
11762;DHT22;5938;47.098;15.474;2022-07-25T05:44:02;20.10;99.90
11762;DHT22;5938;47.098;15.474;2022-07-25T05:48:06;20.20;99.90
11762;DHT22;5938;47.098;15.474;2022-07-25T05:52:09;20.20;99.90
11762;DHT22;5938;47.098;15.474;2022-07-25T05:56:14;20.30;99.90
11762;DHT22;5938;47.098;15.474;2022-07-25T06:00:19;20.30;99.90
11762;DHT22;5938;47.098;15.474;2022-07-25T06:04:22;20.40;99.90
11762;DHT22;5938;47.098;15.474;2022-07-25T06:08:28;20.60;99.90
11762;DHT22;5938;47.098;15.474;2022-07-25T06:12:32;20.80;99.90
11762;DHT22;5938;47.098;15.474;2022-07-25T06:16:39;21.00;99.90
11762;DHT22;5938;47.098;15.474;2022-07-25T06:20:42;21.20;99.90
11762;DHT22;5938;47.098;15.474;2022-07-25T06:24:45;21.50;99.90
11762;DHT22;5938;47.098;15.474;2022-07-25T06:28:49;21.60;99.90
11762;DHT22;5938;47.098;15.474;2022-07-25T06:32:54;21.80;99.90
11762;DHT22;5938;47.098;15.474;2022-07-25T06:36:57;22.10;99.90
11762;DHT22;5938;47.098;15.474;2022-07-25T06:41:01;22.40;99.90
11762;DHT22;5938;47.098;15.474;2022-07-25T06:45:06;22.60;99.90
11762;DHT22;5938;47.098;15.474;2022-07-25T06:49:11;22.80;99.90
11762;DHT22;5938;47.098;15.474;2022-07-25T06:53:15;22.90;99.90
11762;DHT22;5938;47.098;15.474;2022-07-25T06:57:18;23.10;99.90
11762;DHT22;5938;47.098;15.474;2022-07-25T07:01:22;23.30;99.90
11762;DHT22;5938;47.098;15.474;2022-07-25T07:05:28;23.50;99.90
11762;DHT22;5938;47.098;15.474;2022-07-25T07:09:31;23.60;99.90
11762;DHT22;5938;47.098;15.474;2022-07-25T07:13:35;23.70;99.90
11762;DHT22;5938;47.098;15.474;2022-07-25T07:17:38;23.90;99.90
11762;DHT22;5938;47.098;15.474;2022-07-25T07:21:43;24.10;99.90
11762;DHT22;5938;47.098;15.474;2022-07-25T07:25:47;24.30;99.80
11762;DHT22;5938;47.098;15.474;2022-07-25T07:29:51;24.60;98.20
11762;DHT22;5938;47.098;15.474;2022-07-25T07:33:54;24.80;97.50
11762;DHT22;5938;47.098;15.474;2022-07-25T07:37:59;25.00;97.50
11762;DHT22;5938;47.098;15.474;2022-07-25T07:42:02;25.20;97.60
11762;DHT22;5938;47.098;15.474;2022-07-25T07:46:06;25.30;96.70
11762;DHT22;5938;47.098;15.474;2022-07-25T07:50:09;25.30;96.10
11762;DHT22;5938;47.098;15.474;2022-07-25T07:54:14;25.50;96.10
11762;DHT22;5938;47.098;15.474;2022-07-25T07:58:35;25.70;95.40
11762;DHT22;5938;47.098;15.474;2022-07-25T08:02:42;25.80;94.90
11762;DHT22;5938;47.098;15.474;2022-07-25T08:06:46;26.00;93.90
11762;DHT22;5938;47.098;15.474;2022-07-25T08:10:51;26.00;94.10
11762;DHT22;5938;47.098;15.474;2022-07-25T08:14:59;26.20;94.10
11762;DHT22;5938;47.098;15.474;2022-07-25T08:19:03;26.40;95.00
11762;DHT22;5938;47.098;15.474;2022-07-25T08:23:07;26.70;93.50
11762;DHT22;5938;47.098;15.474;2022-07-25T08:27:13;26.70;94.30
11762;DHT22;5938;47.098;15.474;2022-07-25T08:31:16;27.10;93.20
11762;DHT22;5938;47.098;15.474;2022-07-25T08:35:20;26.90;92.50
11762;DHT22;5938;47.098;15.474;2022-07-25T08:39:25;27.30;93.50
11762;DHT22;5938;47.098;15.474;2022-07-25T08:43:30;27.40;93.10
11762;DHT22;5938;47.098;15.474;2022-07-25T08:47:35;27.80;91.20
11762;DHT22;5938;47.098;15.474;2022-07-25T08:51:38;28.30;90.70
11762;DHT22;5938;47.098;15.474;2022-07-25T08:55:42;30.30;90.00
11762;DHT22;5938;47.098;15.474;2022-07-25T09:00:23;32.00;80.70
11762;DHT22;5938;47.098;15.474;2022-07-25T09:04:27;34.00;77.50
11762;DHT22;5938;47.098;15.474;2022-07-25T09:08:37;35.50;70.50
11762;DHT22;5938;47.098;15.474;2022-07-25T09:13:02;35.40;70.50
11762;DHT22;5938;47.098;15.474;2022-07-25T09:17:07;34.60;71.60
11762;DHT22;5938;47.098;15.474;2022-07-25T09:21:24;34.70;70.90
11762;DHT22;5938;47.098;15.474;2022-07-25T09:25:28;36.00;68.60
11762;DHT22;5938;47.098;15.474;2022-07-25T09:29:33;36.50;67.30
11762;DHT22;5938;47.098;15.474;2022-07-25T09:33:45;37.10;64.50
11762;DHT22;5938;47.098;15.474;2022-07-25T09:37:49;37.00;65.10
11762;DHT22;5938;47.098;15.474;2022-07-25T09:41:52;37.10;65.40
11762;DHT22;5938;47.098;15.474;2022-07-25T09:45:56;37.00;64.30
11762;DHT22;5938;47.098;15.474;2022-07-25T09:50:01;36.70;64.10
11762;DHT22;5938;47.098;15.474;2022-07-25T09:54:05;37.20;62.30
11762;DHT22;5938;47.098;15.474;2022-07-25T09:58:09;37.30;62.10
11762;DHT22;5938;47.098;15.474;2022-07-25T10:02:20;36.70;62.50
11762;DHT22;5938;47.098;15.474;2022-07-25T10:06:36;38.00;62.60
11762;DHT22;5938;47.098;15.474;2022-07-25T10:10:41;37.90;62.60
11762;DHT22;5938;47.098;15.474;2022-07-25T10:15:03;38.70;57.40
11762;DHT22;5938;47.098;15.474;2022-07-25T10:19:07;37.20;62.10
11762;DHT22;5938;47.098;15.474;2022-07-25T10:23:23;37.20;60.60
11762;DHT22;5938;47.098;15.474;2022-07-25T10:27:27;37.20;62.00
11762;DHT22;5938;47.098;15.474;2022-07-25T10:31:35;37.60;59.70
11762;DHT22;5938;47.098;15.474;2022-07-25T10:35:39;37.90;60.90
11762;DHT22;5938;47.098;15.474;2022-07-25T10:39:45;37.30;61.40
11762;DHT22;5938;47.098;15.474;2022-07-25T10:43:49;37.00;60.80
11762;DHT22;5938;47.098;15.474;2022-07-25T10:47:53;37.90;60.80
11762;DHT22;5938;47.098;15.474;2022-07-25T10:51:58;38.80;58.40
11762;DHT22;5938;47.098;15.474;2022-07-25T10:56:06;38.70;57.50
11762;DHT22;5938;47.098;15.474;2022-07-25T11:00:10;39.70;58.50
11762;DHT22;5938;47.098;15.474;2022-07-25T11:04:15;40.50;54.50
11762;DHT22;5938;47.098;15.474;2022-07-25T11:08:18;39.20;57.80
11762;DHT22;5938;47.098;15.474;2022-07-25T11:12:33;40.10;56.20
11762;DHT22;5938;47.098;15.474;2022-07-25T11:16:36;39.30;56.50
11762;DHT22;5938;47.098;15.474;2022-07-25T11:20:40;39.20;57.80
11762;DHT22;5938;47.098;15.474;2022-07-25T11:24:44;41.30;55.10
11762;DHT22;5938;47.098;15.474;2022-07-25T11:28:49;41.20;53.40
11762;DHT22;5938;47.098;15.474;2022-07-25T11:32:55;40.80;53.10
11762;DHT22;5938;47.098;15.474;2022-07-25T11:37:00;40.70;54.20
11762;DHT22;5938;47.098;15.474;2022-07-25T11:41:05;42.00;53.40
11762;DHT22;5938;47.098;15.474;2022-07-25T11:45:17;42.40;54.30
11762;DHT22;5938;47.098;15.474;2022-07-25T11:49:20;41.40;51.40
11762;DHT22;5938;47.098;15.474;2022-07-25T11:53:24;41.10;51.80
11762;DHT22;5938;47.098;15.474;2022-07-25T11:57:30;40.80;53.10
11762;DHT22;5938;47.098;15.474;2022-07-25T12:01:36;40.80;52.70
11762;DHT22;5938;47.098;15.474;2022-07-25T12:05:40;41.60;52.00
11762;DHT22;5938;47.098;15.474;2022-07-25T12:09:43;42.00;51.60
11762;DHT22;5938;47.098;15.474;2022-07-25T12:14:02;41.80;51.80
11762;DHT22;5938;47.098;15.474;2022-07-25T12:18:08;41.60;50.40
11762;DHT22;5938;47.098;15.474;2022-07-25T12:22:13;40.80;53.10
11762;DHT22;5938;47.098;15.474;2022-07-25T12:26:16;41.40;51.50
11762;DHT22;5938;47.098;15.474;2022-07-25T12:30:20;42.50;51.20
11762;DHT22;5938;47.098;15.474;2022-07-25T12:34:25;43.50;49.20
11762;DHT22;5938;47.098;15.474;2022-07-25T12:38:29;44.20;47.40
11762;DHT22;5938;47.098;15.474;2022-07-25T12:42:32;43.50;51.50
11762;DHT22;5938;47.098;15.474;2022-07-25T12:46:36;43.20;49.00
11762;DHT22;5938;47.098;15.474;2022-07-25T12:50:43;41.90;51.80
11762;DHT22;5938;47.098;15.474;2022-07-25T12:54:47;41.80;52.60
11762;DHT22;5938;47.098;15.474;2022-07-25T12:58:50;42.60;48.50
11762;DHT22;5938;47.098;15.474;2022-07-25T13:02:55;44.00;48.00
11762;DHT22;5938;47.098;15.474;2022-07-25T13:07:00;43.70;48.30
11762;DHT22;5938;47.098;15.474;2022-07-25T13:11:03;44.70;48.60
11762;DHT22;5938;47.098;15.474;2022-07-25T13:15:07;44.50;49.30
11762;DHT22;5938;47.098;15.474;2022-07-25T13:19:11;44.70;46.60
11762;DHT22;5938;47.098;15.474;2022-07-25T13:23:15;44.40;46.40
11762;DHT22;5938;47.098;15.474;2022-07-25T13:27:22;44.50;48.50
11762;DHT22;5938;47.098;15.474;2022-07-25T13:31:26;45.30;44.50
11762;DHT22;5938;47.098;15.474;2022-07-25T13:35:30;45.20;44.50
11762;DHT22;5938;47.098;15.474;2022-07-25T13:39:41;44.50;45.90
11762;DHT22;5938;47.098;15.474;2022-07-25T13:43:46;43.70;46.70
11762;DHT22;5938;47.098;15.474;2022-07-25T13:47:51;44.40;46.20
11762;DHT22;5938;47.098;15.474;2022-07-25T13:52:17;46.20;45.20
11762;DHT22;5938;47.098;15.474;2022-07-25T13:56:22;44.80;45.20
11762;DHT22;5938;47.098;15.474;2022-07-25T14:00:25;44.30;45.80
11762;DHT22;5938;47.098;15.474;2022-07-25T14:04:28;44.10;46.60
11762;DHT22;5938;47.098;15.474;2022-07-25T14:08:32;44.30;46.20
11762;DHT22;5938;47.098;15.474;2022-07-25T14:12:37;45.80;44.90
11762;DHT22;5938;47.098;15.474;2022-07-25T14:16:41;45.70;43.80
11762;DHT22;5938;47.098;15.474;2022-07-25T14:20:45;44.90;44.80
11762;DHT22;5938;47.098;15.474;2022-07-25T14:24:48;45.00;44.50
11762;DHT22;5938;47.098;15.474;2022-07-25T14:28:53;45.80;44.10
11762;DHT22;5938;47.098;15.474;2022-07-25T14:32:57;45.70;42.20
11762;DHT22;5938;47.098;15.474;2022-07-25T14:37:01;44.60;44.10
11762;DHT22;5938;47.098;15.474;2022-07-25T14:41:05;45.40;43.80
11762;DHT22;5938;47.098;15.474;2022-07-25T14:45:15;45.50;44.60
11762;DHT22;5938;47.098;15.474;2022-07-25T14:49:19;46.40;43.00
11762;DHT22;5938;47.098;15.474;2022-07-25T14:53:23;47.10;42.40
11762;DHT22;5938;47.098;15.474;2022-07-25T14:57:26;45.90;41.80
11762;DHT22;5938;47.098;15.474;2022-07-25T15:01:31;44.50;45.90
11762;DHT22;5938;47.098;15.474;2022-07-25T15:05:34;44.50;45.30
11762;DHT22;5938;47.098;15.474;2022-07-25T15:09:39;43.60;47.40
11762;DHT22;5938;47.098;15.474;2022-07-25T15:13:42;43.80;44.80
11762;DHT22;5938;47.098;15.474;2022-07-25T15:17:47;42.30;47.50
11762;DHT22;5938;47.098;15.474;2022-07-25T15:21:51;42.10;49.80
11762;DHT22;5938;47.098;15.474;2022-07-25T15:25:54;42.90;47.00
11762;DHT22;5938;47.098;15.474;2022-07-25T15:30:05;43.80;48.90
11762;DHT22;5938;47.098;15.474;2022-07-25T15:34:10;42.30;48.30
11762;DHT22;5938;47.098;15.474;2022-07-25T15:38:14;41.90;51.20
11762;DHT22;5938;47.098;15.474;2022-07-25T15:42:18;41.20;52.00
11762;DHT22;5938;47.098;15.474;2022-07-25T15:46:25;42.00;52.20
11762;DHT22;5938;47.098;15.474;2022-07-25T15:50:31;41.90;49.30
11762;DHT22;5938;47.098;15.474;2022-07-25T15:54:34;41.20;53.40
11762;DHT22;5938;47.098;15.474;2022-07-25T15:58:38;38.80;57.20
11762;DHT22;5938;47.098;15.474;2022-07-25T16:02:41;36.70;63.70
11762;DHT22;5938;47.098;15.474;2022-07-25T16:06:48;35.40;69.70
11762;DHT22;5938;47.098;15.474;2022-07-25T16:10:51;35.70;66.90
11762;DHT22;5938;47.098;15.474;2022-07-25T16:14:55;35.30;68.00
11762;DHT22;5938;47.098;15.474;2022-07-25T16:18:58;34.60;69.50
11762;DHT22;5938;47.098;15.474;2022-07-25T16:23:03;33.70;75.00
11762;DHT22;5938;47.098;15.474;2022-07-25T16:27:12;33.20;76.20
11762;DHT22;5938;47.098;15.474;2022-07-25T16:31:16;33.20;74.90
11762;DHT22;5938;47.098;15.474;2022-07-25T16:35:20;33.00;76.00
11762;DHT22;5938;47.098;15.474;2022-07-25T16:39:24;32.50;74.30
11762;DHT22;5938;47.098;15.474;2022-07-25T16:43:28;32.20;78.40
11762;DHT22;5938;47.098;15.474;2022-07-25T16:47:31;32.00;79.50
11762;DHT22;5938;47.098;15.474;2022-07-25T16:51:34;32.00;78.40
11762;DHT22;5938;47.098;15.474;2022-07-25T16:55:39;31.70;79.30
11762;DHT22;5938;47.098;15.474;2022-07-25T16:59:43;31.40;80.30
11762;DHT22;5938;47.098;15.474;2022-07-25T17:03:48;31.20;84.30
11762;DHT22;5938;47.098;15.474;2022-07-25T17:07:51;30.80;84.50
11762;DHT22;5938;47.098;15.474;2022-07-25T17:12:02;30.70;85.60
11762;DHT22;5938;47.098;15.474;2022-07-25T17:16:06;30.50;90.10
11762;DHT22;5938;47.098;15.474;2022-07-25T17:20:10;30.20;91.30
11762;DHT22;5938;47.098;15.474;2022-07-25T17:24:13;29.80;92.60
11762;DHT22;5938;47.098;15.474;2022-07-25T17:28:18;29.40;92.80
11762;DHT22;5938;47.098;15.474;2022-07-25T17:32:21;29.00;93.30
11762;DHT22;5938;47.098;15.474;2022-07-25T17:36:30;28.70;94.60
11762;DHT22;5938;47.098;15.474;2022-07-25T17:40:34;28.30;95.80
11762;DHT22;5938;47.098;15.474;2022-07-25T17:44:38;28.00;96.50
11762;DHT22;5938;47.098;15.474;2022-07-25T17:48:42;27.70;96.40
11762;DHT22;5938;47.098;15.474;2022-07-25T17:52:45;27.50;97.10
11762;DHT22;5938;47.098;15.474;2022-07-25T17:56:48;27.20;98.20
11762;DHT22;5938;47.098;15.474;2022-07-25T18:00:53;27.00;98.10
11762;DHT22;5938;47.098;15.474;2022-07-25T18:05:02;26.70;98.00
11762;DHT22;5938;47.098;15.474;2022-07-25T18:09:06;26.50;99.10
11762;DHT22;5938;47.098;15.474;2022-07-25T18:13:09;26.40;99.50
11762;DHT22;5938;47.098;15.474;2022-07-25T18:17:15;26.30;99.90
11762;DHT22;5938;47.098;15.474;2022-07-25T18:21:18;26.10;99.90
11762;DHT22;5938;47.098;15.474;2022-07-25T18:25:22;26.00;99.90
11762;DHT22;5938;47.098;15.474;2022-07-25T18:29:25;25.90;99.90
11762;DHT22;5938;47.098;15.474;2022-07-25T18:33:30;25.80;99.90
11762;DHT22;5938;47.098;15.474;2022-07-25T18:37:33;25.50;99.90
11762;DHT22;5938;47.098;15.474;2022-07-25T18:41:37;25.40;99.90
11762;DHT22;5938;47.098;15.474;2022-07-25T18:45:41;25.30;99.90
11762;DHT22;5938;47.098;15.474;2022-07-25T18:49:48;25.20;99.90
11762;DHT22;5938;47.098;15.474;2022-07-25T18:53:52;25.00;99.90
11762;DHT22;5938;47.098;15.474;2022-07-25T18:57:55;25.00;99.90
11762;DHT22;5938;47.098;15.474;2022-07-25T19:01:58;24.90;99.90
11762;DHT22;5938;47.098;15.474;2022-07-25T19:06:05;24.90;99.90
11762;DHT22;5938;47.098;15.474;2022-07-25T19:10:09;24.90;99.90
11762;DHT22;5938;47.098;15.474;2022-07-25T19:14:13;24.80;99.90
11762;DHT22;5938;47.098;15.474;2022-07-25T19:18:16;24.60;99.90
11762;DHT22;5938;47.098;15.474;2022-07-25T19:22:21;24.60;99.90
11762;DHT22;5938;47.098;15.474;2022-07-25T19:26:25;24.60;99.90
11762;DHT22;5938;47.098;15.474;2022-07-25T19:30:28;24.60;99.90
11762;DHT22;5938;47.098;15.474;2022-07-25T19:34:32;24.60;99.90
11762;DHT22;5938;47.098;15.474;2022-07-25T19:38:36;24.60;99.90
11762;DHT22;5938;47.098;15.474;2022-07-25T19:42:40;24.50;99.90
11762;DHT22;5938;47.098;15.474;2022-07-25T19:46:44;24.50;99.90
11762;DHT22;5938;47.098;15.474;2022-07-25T19:50:49;24.40;99.90
11762;DHT22;5938;47.098;15.474;2022-07-25T19:54:54;24.40;99.90
11762;DHT22;5938;47.098;15.474;2022-07-25T19:58:57;24.30;99.90
11762;DHT22;5938;47.098;15.474;2022-07-25T20:03:01;24.20;99.90
11762;DHT22;5938;47.098;15.474;2022-07-25T20:07:04;24.20;99.90
11762;DHT22;5938;47.098;15.474;2022-07-25T20:11:09;24.20;99.90
11762;DHT22;5938;47.098;15.474;2022-07-25T20:15:13;24.20;99.90
11762;DHT22;5938;47.098;15.474;2022-07-25T20:19:17;24.10;99.90
11762;DHT22;5938;47.098;15.474;2022-07-25T20:23:21;24.10;99.90
11762;DHT22;5938;47.098;15.474;2022-07-25T20:27:26;24.10;99.90
11762;DHT22;5938;47.098;15.474;2022-07-25T20:31:29;24.00;99.90
11762;DHT22;5938;47.098;15.474;2022-07-25T20:35:33;24.00;99.90
11762;DHT22;5938;47.098;15.474;2022-07-25T20:39:36;24.00;99.90
11762;DHT22;5938;47.098;15.474;2022-07-25T20:43:41;23.90;99.90
11762;DHT22;5938;47.098;15.474;2022-07-25T20:47:44;23.90;99.90
11762;DHT22;5938;47.098;15.474;2022-07-25T20:51:48;23.80;99.90
11762;DHT22;5938;47.098;15.474;2022-07-25T20:55:55;23.80;99.90
11762;DHT22;5938;47.098;15.474;2022-07-25T21:00:00;23.80;99.90
11762;DHT22;5938;47.098;15.474;2022-07-25T21:04:04;23.80;99.90
11762;DHT22;5938;47.098;15.474;2022-07-25T21:08:09;23.80;99.90
11762;DHT22;5938;47.098;15.474;2022-07-25T21:12:13;23.80;99.90
11762;DHT22;5938;47.098;15.474;2022-07-25T21:16:17;23.80;99.90
11762;DHT22;5938;47.098;15.474;2022-07-25T21:20:21;23.90;99.90
11762;DHT22;5938;47.098;15.474;2022-07-25T21:24:24;23.90;99.90
11762;DHT22;5938;47.098;15.474;2022-07-25T21:28:28;23.90;99.90
11762;DHT22;5938;47.098;15.474;2022-07-25T21:32:33;23.90;99.90
11762;DHT22;5938;47.098;15.474;2022-07-25T21:36:36;23.80;99.90
11762;DHT22;5938;47.098;15.474;2022-07-25T21:40:39;23.80;99.90
11762;DHT22;5938;47.098;15.474;2022-07-25T21:44:43;23.70;99.90
11762;DHT22;5938;47.098;15.474;2022-07-25T21:48:48;23.60;99.90
11762;DHT22;5938;47.098;15.474;2022-07-25T21:53:11;23.50;99.90
11762;DHT22;5938;47.098;15.474;2022-07-25T21:57:15;23.50;99.90
11762;DHT22;5938;47.098;15.474;2022-07-25T22:01:18;23.40;99.90
11762;DHT22;5938;47.098;15.474;2022-07-25T22:05:24;23.30;99.90
11762;DHT22;5938;47.098;15.474;2022-07-25T22:09:27;23.30;99.90
11762;DHT22;5938;47.098;15.474;2022-07-25T22:13:31;23.30;99.90
11762;DHT22;5938;47.098;15.474;2022-07-25T22:17:35;23.20;99.90
11762;DHT22;5938;47.098;15.474;2022-07-25T22:21:52;23.20;99.90
11762;DHT22;5938;47.098;15.474;2022-07-25T22:25:55;23.10;99.90
11762;DHT22;5938;47.098;15.474;2022-07-25T22:29:58;23.00;99.90
11762;DHT22;5938;47.098;15.474;2022-07-25T22:34:02;23.10;99.90
11762;DHT22;5938;47.098;15.474;2022-07-25T22:38:06;23.10;99.90
11762;DHT22;5938;47.098;15.474;2022-07-25T22:42:10;23.10;99.90
11762;DHT22;5938;47.098;15.474;2022-07-25T22:46:17;23.10;99.90
11762;DHT22;5938;47.098;15.474;2022-07-25T22:50:20;23.00;99.90
11762;DHT22;5938;47.098;15.474;2022-07-25T22:54:25;22.90;99.90
11762;DHT22;5938;47.098;15.474;2022-07-25T22:58:28;22.90;99.90
11762;DHT22;5938;47.098;15.474;2022-07-25T23:02:32;22.80;99.90
11762;DHT22;5938;47.098;15.474;2022-07-25T23:06:35;22.70;99.90
11762;DHT22;5938;47.098;15.474;2022-07-25T23:10:40;22.80;99.90
11762;DHT22;5938;47.098;15.474;2022-07-25T23:14:43;22.90;99.90
11762;DHT22;5938;47.098;15.474;2022-07-25T23:18:46;22.90;99.90
11762;DHT22;5938;47.098;15.474;2022-07-25T23:22:51;22.90;99.90
11762;DHT22;5938;47.098;15.474;2022-07-25T23:26:59;22.80;99.90
11762;DHT22;5938;47.098;15.474;2022-07-25T23:31:03;22.80;99.90
11762;DHT22;5938;47.098;15.474;2022-07-25T23:35:07;22.80;99.90
11762;DHT22;5938;47.098;15.474;2022-07-25T23:39:10;22.90;99.90
11762;DHT22;5938;47.098;15.474;2022-07-25T23:43:17;22.80;99.90
11762;DHT22;5938;47.098;15.474;2022-07-25T23:47:40;22.90;99.90
11762;DHT22;5938;47.098;15.474;2022-07-25T23:51:44;23.10;99.90
11762;DHT22;5938;47.098;15.474;2022-07-25T23:55:48;23.30;99.90
11762;DHT22;5938;47.098;15.474;2022-07-25T23:59:52;23.40;99.90
